sensor_id;sensor_type;location;lat;lon;timestamp;P1;durP1;ratioP1;P2;durP2;ratioP2
6372;SDS011;3219;51.362;7.074;2023-07-28T00:00:16;4.15;;;3.25;;
6372;SDS011;3219;51.362;7.074;2023-07-28T00:02:45;4.03;;;3.40;;
6372;SDS011;3219;51.362;7.074;2023-07-28T00:05:13;3.00;;;2.30;;
6372;SDS011;3219;51.362;7.074;2023-07-28T00:07:42;4.20;;;3.47;;
6372;SDS011;3219;51.362;7.074;2023-07-28T00:10:12;4.40;;;2.47;;
6372;SDS011;3219;51.362;7.074;2023-07-28T00:12:40;2.75;;;2.13;;
6372;SDS011;3219;51.362;7.074;2023-07-28T00:15:09;3.60;;;2.40;;
6372;SDS011;3219;51.362;7.074;2023-07-28T00:17:38;3.85;;;2.35;;
6372;SDS011;3219;51.362;7.074;2023-07-28T00:20:08;3.00;;;1.98;;
6372;SDS011;3219;51.362;7.074;2023-07-28T00:25:05;2.58;;;1.77;;
6372;SDS011;3219;51.362;7.074;2023-07-28T00:27:35;2.58;;;2.05;;
6372;SDS011;3219;51.362;7.074;2023-07-28T00:30:04;2.60;;;2.17;;
6372;SDS011;3219;51.362;7.074;2023-07-28T00:32:33;3.58;;;3.08;;
6372;SDS011;3219;51.362;7.074;2023-07-28T00:35:02;3.22;;;2.25;;
6372;SDS011;3219;51.362;7.074;2023-07-28T00:37:30;3.90;;;2.38;;
6372;SDS011;3219;51.362;7.074;2023-07-28T00:39:59;3.17;;;2.17;;
6372;SDS011;3219;51.362;7.074;2023-07-28T00:42:28;4.13;;;2.28;;
6372;SDS011;3219;51.362;7.074;2023-07-28T00:44:58;2.55;;;2.22;;
6372;SDS011;3219;51.362;7.074;2023-07-28T00:47:27;2.60;;;1.67;;
6372;SDS011;3219;51.362;7.074;2023-07-28T00:49:55;4.03;;;1.73;;
6372;SDS011;3219;51.362;7.074;2023-07-28T00:52:24;1.75;;;1.52;;
6372;SDS011;3219;51.362;7.074;2023-07-28T00:54:53;2.50;;;1.70;;
6372;SDS011;3219;51.362;7.074;2023-07-28T00:57:22;2.67;;;1.70;;
6372;SDS011;3219;51.362;7.074;2023-07-28T00:59:50;3.05;;;2.42;;
6372;SDS011;3219;51.362;7.074;2023-07-28T01:02:20;3.50;;;2.00;;
6372;SDS011;3219;51.362;7.074;2023-07-28T01:04:49;2.72;;;2.20;;
6372;SDS011;3219;51.362;7.074;2023-07-28T01:07:21;3.55;;;2.55;;
6372;SDS011;3219;51.362;7.074;2023-07-28T01:09:52;3.20;;;2.90;;
6372;SDS011;3219;51.362;7.074;2023-07-28T01:12:23;3.78;;;2.72;;
6372;SDS011;3219;51.362;7.074;2023-07-28T01:14:52;3.53;;;3.22;;
6372;SDS011;3219;51.362;7.074;2023-07-28T01:17:22;4.28;;;2.65;;
6372;SDS011;3219;51.362;7.074;2023-07-28T01:19:51;3.60;;;2.75;;
6372;SDS011;3219;51.362;7.074;2023-07-28T01:22:38;3.60;;;2.80;;
6372;SDS011;3219;51.362;7.074;2023-07-28T01:25:11;2.58;;;2.00;;
6372;SDS011;3219;51.362;7.074;2023-07-28T01:27:44;2.58;;;2.15;;
6372;SDS011;3219;51.362;7.074;2023-07-28T01:30:13;4.00;;;3.10;;
6372;SDS011;3219;51.362;7.074;2023-07-28T01:32:42;2.38;;;1.75;;
6372;SDS011;3219;51.362;7.074;2023-07-28T01:35:10;2.72;;;2.25;;
6372;SDS011;3219;51.362;7.074;2023-07-28T01:37:39;1.95;;;1.30;;
6372;SDS011;3219;51.362;7.074;2023-07-28T01:40:08;1.67;;;1.10;;
6372;SDS011;3219;51.362;7.074;2023-07-28T01:42:36;1.40;;;1.23;;
6372;SDS011;3219;51.362;7.074;2023-07-28T01:45:07;1.23;;;1.13;;
6372;SDS011;3219;51.362;7.074;2023-07-28T01:47:36;2.35;;;2.17;;
6372;SDS011;3219;51.362;7.074;2023-07-28T01:50:05;1.63;;;1.52;;
6372;SDS011;3219;51.362;7.074;2023-07-28T01:52:34;2.55;;;1.00;;
6372;SDS011;3219;51.362;7.074;2023-07-28T01:55:03;2.20;;;1.75;;
6372;SDS011;3219;51.362;7.074;2023-07-28T02:00:00;1.55;;;1.40;;
6372;SDS011;3219;51.362;7.074;2023-07-28T02:05:00;1.55;;;1.25;;
6372;SDS011;3219;51.362;7.074;2023-07-28T02:07:28;1.83;;;0.85;;
6372;SDS011;3219;51.362;7.074;2023-07-28T02:09:57;1.48;;;1.38;;
6372;SDS011;3219;51.362;7.074;2023-07-28T02:12:25;1.30;;;1.20;;
6372;SDS011;3219;51.362;7.074;2023-07-28T02:14:54;1.10;;;0.77;;
6372;SDS011;3219;51.362;7.074;2023-07-28T02:17:22;1.83;;;1.73;;
6372;SDS011;3219;51.362;7.074;2023-07-28T02:19:51;1.05;;;0.95;;
6372;SDS011;3219;51.362;7.074;2023-07-28T02:22:21;1.58;;;1.48;;
6372;SDS011;3219;51.362;7.074;2023-07-28T02:24:50;1.65;;;0.90;;
6372;SDS011;3219;51.362;7.074;2023-07-28T02:27:18;1.08;;;0.90;;
6372;SDS011;3219;51.362;7.074;2023-07-28T02:29:47;1.02;;;0.93;;
6372;SDS011;3219;51.362;7.074;2023-07-28T02:32:16;1.30;;;1.20;;
6372;SDS011;3219;51.362;7.074;2023-07-28T02:34:44;0.93;;;0.75;;
6372;SDS011;3219;51.362;7.074;2023-07-28T02:37:14;1.80;;;1.30;;
6372;SDS011;3219;51.362;7.074;2023-07-28T02:39:44;1.55;;;1.45;;
6372;SDS011;3219;51.362;7.074;2023-07-28T02:42:12;0.98;;;0.73;;
6372;SDS011;3219;51.362;7.074;2023-07-28T02:44:41;1.10;;;0.80;;
6372;SDS011;3219;51.362;7.074;2023-07-28T02:47:10;1.77;;;0.98;;
6372;SDS011;3219;51.362;7.074;2023-07-28T02:49:40;1.08;;;1.02;;
6372;SDS011;3219;51.362;7.074;2023-07-28T02:52:09;1.15;;;1.05;;
6372;SDS011;3219;51.362;7.074;2023-07-28T02:54:37;0.90;;;0.47;;
6372;SDS011;3219;51.362;7.074;2023-07-28T02:57:07;0.88;;;0.63;;
6372;SDS011;3219;51.362;7.074;2023-07-28T02:59:36;0.82;;;0.80;;
6372;SDS011;3219;51.362;7.074;2023-07-28T03:02:05;1.33;;;1.23;;
6372;SDS011;3219;51.362;7.074;2023-07-28T03:04:33;1.65;;;0.85;;
6372;SDS011;3219;51.362;7.074;2023-07-28T03:07:02;1.42;;;1.30;;
6372;SDS011;3219;51.362;7.074;2023-07-28T03:09:31;2.50;;;1.73;;
6372;SDS011;3219;51.362;7.074;2023-07-28T03:12:00;1.08;;;0.93;;
6372;SDS011;3219;51.362;7.074;2023-07-28T03:14:32;1.70;;;0.90;;
6372;SDS011;3219;51.362;7.074;2023-07-28T03:17:01;1.48;;;0.75;;
6372;SDS011;3219;51.362;7.074;2023-07-28T03:19:30;1.23;;;1.13;;
6372;SDS011;3219;51.362;7.074;2023-07-28T03:21:59;1.52;;;1.30;;
6372;SDS011;3219;51.362;7.074;2023-07-28T03:24:28;0.88;;;0.47;;
6372;SDS011;3219;51.362;7.074;2023-07-28T03:26:56;1.23;;;1.13;;
6372;SDS011;3219;51.362;7.074;2023-07-28T03:29:25;1.05;;;1.00;;
6372;SDS011;3219;51.362;7.074;2023-07-28T03:31:55;0.77;;;0.65;;
6372;SDS011;3219;51.362;7.074;2023-07-28T03:34:24;1.33;;;0.73;;
6372;SDS011;3219;51.362;7.074;2023-07-28T03:36:52;1.00;;;0.88;;
6372;SDS011;3219;51.362;7.074;2023-07-28T03:39:21;0.98;;;0.98;;
6372;SDS011;3219;51.362;7.074;2023-07-28T03:41:50;0.85;;;0.73;;
6372;SDS011;3219;51.362;7.074;2023-07-28T03:44:18;0.73;;;0.65;;
6372;SDS011;3219;51.362;7.074;2023-07-28T03:46:47;1.25;;;1.15;;
6372;SDS011;3219;51.362;7.074;2023-07-28T03:49:17;1.08;;;0.70;;
6372;SDS011;3219;51.362;7.074;2023-07-28T03:51:46;0.85;;;0.85;;
6372;SDS011;3219;51.362;7.074;2023-07-28T03:54:14;0.95;;;0.82;;
6372;SDS011;3219;51.362;7.074;2023-07-28T03:56:43;1.23;;;0.60;;
6372;SDS011;3219;51.362;7.074;2023-07-28T03:59:12;1.30;;;1.17;;
6372;SDS011;3219;51.362;7.074;2023-07-28T04:01:40;0.70;;;0.50;;
6372;SDS011;3219;51.362;7.074;2023-07-28T04:04:09;0.63;;;0.63;;
6372;SDS011;3219;51.362;7.074;2023-07-28T04:06:43;0.52;;;0.52;;
6372;SDS011;3219;51.362;7.074;2023-07-28T04:09:12;0.75;;;0.75;;
6372;SDS011;3219;51.362;7.074;2023-07-28T04:11:41;1.88;;;0.40;;
6372;SDS011;3219;51.362;7.074;2023-07-28T04:14:10;0.88;;;0.88;;
6372;SDS011;3219;51.362;7.074;2023-07-28T04:16:39;1.02;;;0.80;;
6372;SDS011;3219;51.362;7.074;2023-07-28T04:19:08;1.73;;;1.63;;
6372;SDS011;3219;51.362;7.074;2023-07-28T04:21:36;0.82;;;0.75;;
6372;SDS011;3219;51.362;7.074;2023-07-28T04:24:07;0.55;;;0.55;;
6372;SDS011;3219;51.362;7.074;2023-07-28T04:26:36;1.35;;;0.77;;
6372;SDS011;3219;51.362;7.074;2023-07-28T04:29:05;0.90;;;0.70;;
6372;SDS011;3219;51.362;7.074;2023-07-28T04:31:33;0.65;;;0.65;;
6372;SDS011;3219;51.362;7.074;2023-07-28T04:34:02;1.13;;;1.02;;
6372;SDS011;3219;51.362;7.074;2023-07-28T04:36:31;1.13;;;1.02;;
6372;SDS011;3219;51.362;7.074;2023-07-28T04:38:59;1.13;;;1.02;;
6372;SDS011;3219;51.362;7.074;2023-07-28T04:41:29;1.02;;;0.70;;
6372;SDS011;3219;51.362;7.074;2023-07-28T04:43:58;1.27;;;0.95;;
6372;SDS011;3219;51.362;7.074;2023-07-28T04:46:27;1.42;;;1.33;;
6372;SDS011;3219;51.362;7.074;2023-07-28T04:48:56;1.42;;;1.33;;
6372;SDS011;3219;51.362;7.074;2023-07-28T04:51:25;0.85;;;0.68;;
6372;SDS011;3219;51.362;7.074;2023-07-28T04:53:53;1.20;;;1.08;;
6372;SDS011;3219;51.362;7.074;2023-07-28T04:56:22;1.23;;;0.70;;
6372;SDS011;3219;51.362;7.074;2023-07-28T04:58:52;0.95;;;0.90;;
6372;SDS011;3219;51.362;7.074;2023-07-28T05:01:21;1.50;;;0.80;;
6372;SDS011;3219;51.362;7.074;2023-07-28T05:03:49;1.23;;;0.63;;
6372;SDS011;3219;51.362;7.074;2023-07-28T05:06:18;1.25;;;1.15;;
6372;SDS011;3219;51.362;7.074;2023-07-28T05:08:47;0.90;;;0.90;;
6372;SDS011;3219;51.362;7.074;2023-07-28T05:11:16;1.67;;;1.45;;
6372;SDS011;3219;51.362;7.074;2023-07-28T05:13:44;1.00;;;0.88;;
6372;SDS011;3219;51.362;7.074;2023-07-28T05:16:14;1.35;;;1.25;;
6372;SDS011;3219;51.362;7.074;2023-07-28T05:18:43;0.95;;;0.77;;
6372;SDS011;3219;51.362;7.074;2023-07-28T05:21:12;0.70;;;0.40;;
6372;SDS011;3219;51.362;7.074;2023-07-28T05:23:40;3.13;;;0.98;;
6372;SDS011;3219;51.362;7.074;2023-07-28T05:26:09;1.27;;;1.15;;
6372;SDS011;3219;51.362;7.074;2023-07-28T05:28:38;1.73;;;1.30;;
6372;SDS011;3219;51.362;7.074;2023-07-28T05:31:06;1.23;;;1.13;;
6372;SDS011;3219;51.362;7.074;2023-07-28T05:33:38;1.23;;;1.02;;
6372;SDS011;3219;51.362;7.074;2023-07-28T05:36:06;1.35;;;1.25;;
6372;SDS011;3219;51.362;7.074;2023-07-28T05:38:35;1.60;;;0.93;;
6372;SDS011;3219;51.362;7.074;2023-07-28T05:41:04;1.15;;;0.63;;
6372;SDS011;3219;51.362;7.074;2023-07-28T05:43:33;0.98;;;0.90;;
6372;SDS011;3219;51.362;7.074;2023-07-28T05:46:01;1.40;;;1.13;;
6372;SDS011;3219;51.362;7.074;2023-07-28T05:48:30;1.25;;;0.85;;
6372;SDS011;3219;51.362;7.074;2023-07-28T05:51:00;1.45;;;0.80;;
6372;SDS011;3219;51.362;7.074;2023-07-28T05:53:28;1.02;;;0.80;;
6372;SDS011;3219;51.362;7.074;2023-07-28T05:55:57;1.08;;;0.98;;
6372;SDS011;3219;51.362;7.074;2023-07-28T05:58:26;0.80;;;0.57;;
6372;SDS011;3219;51.362;7.074;2023-07-28T06:00:54;1.30;;;1.00;;
6372;SDS011;3219;51.362;7.074;2023-07-28T06:03:22;1.95;;;1.38;;
6372;SDS011;3219;51.362;7.074;2023-07-28T06:05:51;2.22;;;1.88;;
6372;SDS011;3219;51.362;7.074;2023-07-28T06:08:21;2.72;;;1.48;;
6372;SDS011;3219;51.362;7.074;2023-07-28T06:10:49;2.03;;;1.58;;
6372;SDS011;3219;51.362;7.074;2023-07-28T06:13:17;2.25;;;1.67;;
6372;SDS011;3219;51.362;7.074;2023-07-28T06:15:46;2.78;;;1.60;;
6372;SDS011;3219;51.362;7.074;2023-07-28T06:18:14;2.22;;;2.03;;
6372;SDS011;3219;51.362;7.074;2023-07-28T06:20:43;3.90;;;2.63;;
6372;SDS011;3219;51.362;7.074;2023-07-28T06:23:12;3.22;;;1.63;;
6372;SDS011;3219;51.362;7.074;2023-07-28T06:25:42;2.00;;;1.75;;
6372;SDS011;3219;51.362;7.074;2023-07-28T06:28:11;3.13;;;1.85;;
6372;SDS011;3219;51.362;7.074;2023-07-28T06:30:39;2.72;;;2.00;;
6372;SDS011;3219;51.362;7.074;2023-07-28T06:33:08;5.95;;;2.53;;
6372;SDS011;3219;51.362;7.074;2023-07-28T06:35:37;5.35;;;2.35;;
6372;SDS011;3219;51.362;7.074;2023-07-28T06:38:05;2.40;;;1.88;;
6372;SDS011;3219;51.362;7.074;2023-07-28T06:40:33;5.68;;;3.40;;
6372;SDS011;3219;51.362;7.074;2023-07-28T06:43:03;2.88;;;2.20;;
6372;SDS011;3219;51.362;7.074;2023-07-28T06:45:32;3.40;;;1.85;;
6372;SDS011;3219;51.362;7.074;2023-07-28T06:48:00;4.15;;;2.58;;
6372;SDS011;3219;51.362;7.074;2023-07-28T06:50:29;3.67;;;2.75;;
6372;SDS011;3219;51.362;7.074;2023-07-28T06:52:58;4.05;;;3.22;;
6372;SDS011;3219;51.362;7.074;2023-07-28T06:55:26;3.72;;;2.90;;
6372;SDS011;3219;51.362;7.074;2023-07-28T06:57:55;3.65;;;2.60;;
6372;SDS011;3219;51.362;7.074;2023-07-28T07:00:25;3.95;;;2.95;;
6372;SDS011;3219;51.362;7.074;2023-07-28T07:02:54;4.00;;;3.10;;
6372;SDS011;3219;51.362;7.074;2023-07-28T07:05:23;5.05;;;3.10;;
6372;SDS011;3219;51.362;7.074;2023-07-28T07:07:51;5.13;;;3.17;;
6372;SDS011;3219;51.362;7.074;2023-07-28T07:10:20;4.25;;;3.28;;
6372;SDS011;3219;51.362;7.074;2023-07-28T07:12:50;5.18;;;3.90;;
6372;SDS011;3219;51.362;7.074;2023-07-28T07:15:18;6.95;;;3.60;;
6372;SDS011;3219;51.362;7.074;2023-07-28T07:17:49;6.55;;;3.88;;
6372;SDS011;3219;51.362;7.074;2023-07-28T07:20:18;5.70;;;3.55;;
6372;SDS011;3219;51.362;7.074;2023-07-28T07:22:46;4.93;;;3.08;;
6372;SDS011;3219;51.362;7.074;2023-07-28T07:25:15;5.43;;;3.25;;
6372;SDS011;3219;51.362;7.074;2023-07-28T07:27:43;7.50;;;3.13;;
6372;SDS011;3219;51.362;7.074;2023-07-28T07:30:12;4.57;;;2.50;;
6372;SDS011;3219;51.362;7.074;2023-07-28T07:32:40;6.05;;;2.33;;
6372;SDS011;3219;51.362;7.074;2023-07-28T07:35:11;4.97;;;2.85;;
6372;SDS011;3219;51.362;7.074;2023-07-28T07:37:39;4.55;;;2.35;;
6372;SDS011;3219;51.362;7.074;2023-07-28T07:42:41;3.65;;;2.13;;
6372;SDS011;3219;51.362;7.074;2023-07-28T07:45:10;4.07;;;1.92;;
6372;SDS011;3219;51.362;7.074;2023-07-28T07:47:38;2.78;;;1.52;;
6372;SDS011;3219;51.362;7.074;2023-07-28T07:50:07;2.58;;;1.88;;
6372;SDS011;3219;51.362;7.074;2023-07-28T07:52:37;2.92;;;1.25;;
6372;SDS011;3219;51.362;7.074;2023-07-28T07:55:06;2.03;;;1.38;;
6372;SDS011;3219;51.362;7.074;2023-07-28T07:57:35;2.45;;;1.25;;
6372;SDS011;3219;51.362;7.074;2023-07-28T08:00:03;2.03;;;1.30;;
6372;SDS011;3219;51.362;7.074;2023-07-28T08:02:32;2.35;;;1.70;;
6372;SDS011;3219;51.362;7.074;2023-07-28T08:05:00;3.20;;;1.52;;
6372;SDS011;3219;51.362;7.074;2023-07-28T08:07:32;2.70;;;2.33;;
6372;SDS011;3219;51.362;7.074;2023-07-28T08:10:02;4.30;;;2.63;;
6372;SDS011;3219;51.362;7.074;2023-07-28T08:12:31;4.45;;;2.53;;
6372;SDS011;3219;51.362;7.074;2023-07-28T08:14:59;4.47;;;2.55;;
6372;SDS011;3219;51.362;7.074;2023-07-28T08:17:28;3.58;;;2.40;;
6372;SDS011;3219;51.362;7.074;2023-07-28T08:19:57;2.90;;;2.05;;
6372;SDS011;3219;51.362;7.074;2023-07-28T08:22:26;2.47;;;1.73;;
6372;SDS011;3219;51.362;7.074;2023-07-28T08:24:54;3.15;;;2.40;;
6372;SDS011;3219;51.362;7.074;2023-07-28T08:27:24;2.13;;;1.55;;
6372;SDS011;3219;51.362;7.074;2023-07-28T08:29:53;2.08;;;1.10;;
6372;SDS011;3219;51.362;7.074;2023-07-28T08:32:22;1.33;;;1.10;;
6372;SDS011;3219;51.362;7.074;2023-07-28T08:34:50;1.58;;;1.05;;
6372;SDS011;3219;51.362;7.074;2023-07-28T08:37:19;2.60;;;1.05;;
6372;SDS011;3219;51.362;7.074;2023-07-28T08:39:48;1.15;;;0.85;;
6372;SDS011;3219;51.362;7.074;2023-07-28T08:42:16;1.65;;;0.77;;
6372;SDS011;3219;51.362;7.074;2023-07-28T08:44:46;1.30;;;0.98;;
6372;SDS011;3219;51.362;7.074;2023-07-28T08:47:17;1.40;;;1.20;;
6372;SDS011;3219;51.362;7.074;2023-07-28T08:49:46;1.73;;;0.88;;
6372;SDS011;3219;51.362;7.074;2023-07-28T08:52:15;1.25;;;1.00;;
6372;SDS011;3219;51.362;7.074;2023-07-28T08:54:44;1.45;;;0.73;;
6372;SDS011;3219;51.362;7.074;2023-07-28T08:57:12;1.70;;;1.10;;
6372;SDS011;3219;51.362;7.074;2023-07-28T08:59:40;1.50;;;1.38;;
6372;SDS011;3219;51.362;7.074;2023-07-28T09:02:14;1.65;;;1.02;;
6372;SDS011;3219;51.362;7.074;2023-07-28T09:04:42;2.70;;;1.17;;
6372;SDS011;3219;51.362;7.074;2023-07-28T09:07:11;3.45;;;1.70;;
6372;SDS011;3219;51.362;7.074;2023-07-28T09:09:40;1.50;;;1.25;;
6372;SDS011;3219;51.362;7.074;2023-07-28T09:12:08;2.17;;;1.55;;
6372;SDS011;3219;51.362;7.074;2023-07-28T09:14:37;2.03;;;1.30;;
6372;SDS011;3219;51.362;7.074;2023-07-28T09:17:07;2.33;;;1.65;;
6372;SDS011;3219;51.362;7.074;2023-07-28T09:19:53;2.70;;;1.98;;
6372;SDS011;3219;51.362;7.074;2023-07-28T09:22:21;4.30;;;2.17;;
6372;SDS011;3219;51.362;7.074;2023-07-28T09:24:50;2.47;;;2.28;;
6372;SDS011;3219;51.362;7.074;2023-07-28T09:27:19;6.07;;;2.53;;
6372;SDS011;3219;51.362;7.074;2023-07-28T09:29:48;3.45;;;2.45;;
6372;SDS011;3219;51.362;7.074;2023-07-28T09:32:17;4.20;;;2.28;;
6372;SDS011;3219;51.362;7.074;2023-07-28T09:35:09;4.35;;;2.40;;
6372;SDS011;3219;51.362;7.074;2023-07-28T09:37:38;4.57;;;2.17;;
6372;SDS011;3219;51.362;7.074;2023-07-28T09:40:08;2.60;;;2.35;;
6372;SDS011;3219;51.362;7.074;2023-07-28T09:42:37;4.93;;;2.20;;
6372;SDS011;3219;51.362;7.074;2023-07-28T09:45:06;3.85;;;3.05;;
6372;SDS011;3219;51.362;7.074;2023-07-28T09:47:35;3.90;;;2.58;;
6372;SDS011;3219;51.362;7.074;2023-07-28T09:50:04;3.67;;;2.22;;
6372;SDS011;3219;51.362;7.074;2023-07-28T09:52:37;3.38;;;2.58;;
6372;SDS011;3219;51.362;7.074;2023-07-28T09:55:06;4.82;;;2.53;;
6372;SDS011;3219;51.362;7.074;2023-07-28T09:57:36;3.25;;;2.53;;
6372;SDS011;3219;51.362;7.074;2023-07-28T10:00:07;4.43;;;2.22;;
6372;SDS011;3219;51.362;7.074;2023-07-28T10:02:36;3.95;;;2.67;;
6372;SDS011;3219;51.362;7.074;2023-07-28T10:05:06;4.22;;;3.42;;
6372;SDS011;3219;51.362;7.074;2023-07-28T10:07:37;3.58;;;2.28;;
6372;SDS011;3219;51.362;7.074;2023-07-28T10:10:07;5.32;;;3.35;;
6372;SDS011;3219;51.362;7.074;2023-07-28T10:15:04;3.40;;;2.20;;
6372;SDS011;3219;51.362;7.074;2023-07-28T10:20:02;3.55;;;2.22;;
6372;SDS011;3219;51.362;7.074;2023-07-28T10:22:33;4.75;;;3.28;;
6372;SDS011;3219;51.362;7.074;2023-07-28T10:25:10;3.53;;;2.83;;
6372;SDS011;3219;51.362;7.074;2023-07-28T10:27:38;3.35;;;2.65;;
6372;SDS011;3219;51.362;7.074;2023-07-28T10:30:12;3.03;;;2.33;;
6372;SDS011;3219;51.362;7.074;2023-07-28T10:32:42;5.10;;;2.00;;
6372;SDS011;3219;51.362;7.074;2023-07-28T10:35:21;2.58;;;2.15;;
6372;SDS011;3219;51.362;7.074;2023-07-28T10:37:50;2.10;;;1.75;;
6372;SDS011;3219;51.362;7.074;2023-07-28T10:40:23;2.72;;;1.90;;
6372;SDS011;3219;51.362;7.074;2023-07-28T10:42:53;4.47;;;2.53;;
6372;SDS011;3219;51.362;7.074;2023-07-28T10:45:22;2.30;;;1.50;;
6372;SDS011;3219;51.362;7.074;2023-07-28T10:47:52;2.33;;;2.13;;
6372;SDS011;3219;51.362;7.074;2023-07-28T10:50:21;3.25;;;1.63;;
6372;SDS011;3219;51.362;7.074;2023-07-28T10:52:50;3.65;;;1.92;;
6372;SDS011;3219;51.362;7.074;2023-07-28T10:55:19;2.47;;;1.70;;
6372;SDS011;3219;51.362;7.074;2023-07-28T10:57:51;2.35;;;1.52;;
6372;SDS011;3219;51.362;7.074;2023-07-28T11:00:21;2.95;;;2.08;;
6372;SDS011;3219;51.362;7.074;2023-07-28T11:02:52;3.35;;;2.13;;
6372;SDS011;3219;51.362;7.074;2023-07-28T11:05:21;2.83;;;2.17;;
6372;SDS011;3219;51.362;7.074;2023-07-28T11:07:50;3.65;;;1.80;;
6372;SDS011;3219;51.362;7.074;2023-07-28T11:10:19;1.80;;;1.50;;
6372;SDS011;3219;51.362;7.074;2023-07-28T11:12:48;2.83;;;1.88;;
6372;SDS011;3219;51.362;7.074;2023-07-28T11:15:18;1.85;;;1.73;;
6372;SDS011;3219;51.362;7.074;2023-07-28T11:17:48;1.50;;;1.10;;
6372;SDS011;3219;51.362;7.074;2023-07-28T11:20:16;1.35;;;0.95;;
6372;SDS011;3219;51.362;7.074;2023-07-28T11:25:14;3.00;;;2.28;;
6372;SDS011;3219;51.362;7.074;2023-07-28T11:27:44;4.15;;;1.50;;
6372;SDS011;3219;51.362;7.074;2023-07-28T11:30:13;2.20;;;1.08;;
6372;SDS011;3219;51.362;7.074;2023-07-28T11:32:44;3.05;;;1.80;;
6372;SDS011;3219;51.362;7.074;2023-07-28T11:35:13;2.67;;;1.23;;
6372;SDS011;3219;51.362;7.074;2023-07-28T11:37:42;2.20;;;1.02;;
6372;SDS011;3219;51.362;7.074;2023-07-28T11:40:14;2.30;;;1.10;;
6372;SDS011;3219;51.362;7.074;2023-07-28T11:42:44;1.75;;;1.02;;
6372;SDS011;3219;51.362;7.074;2023-07-28T11:45:14;2.67;;;1.85;;
6372;SDS011;3219;51.362;7.074;2023-07-28T11:50:29;3.42;;;1.98;;
6372;SDS011;3219;51.362;7.074;2023-07-28T11:52:57;2.67;;;1.33;;
6372;SDS011;3219;51.362;7.074;2023-07-28T11:55:26;2.13;;;1.38;;
6372;SDS011;3219;51.362;7.074;2023-07-28T11:57:54;1.70;;;1.13;;
6372;SDS011;3219;51.362;7.074;2023-07-28T12:00:24;2.20;;;0.90;;
6372;SDS011;3219;51.362;7.074;2023-07-28T12:03:00;1.63;;;0.43;;
6372;SDS011;3219;51.362;7.074;2023-07-28T12:05:31;1.33;;;1.23;;
6372;SDS011;3219;51.362;7.074;2023-07-28T12:08:00;1.10;;;0.85;;
6372;SDS011;3219;51.362;7.074;2023-07-28T12:10:29;1.30;;;0.85;;
6372;SDS011;3219;51.362;7.074;2023-07-28T12:12:57;1.42;;;1.30;;
6372;SDS011;3219;51.362;7.074;2023-07-28T12:15:31;1.42;;;1.00;;
6372;SDS011;3219;51.362;7.074;2023-07-28T12:18:03;1.88;;;1.33;;
6372;SDS011;3219;51.362;7.074;2023-07-28T12:20:35;2.75;;;1.15;;
6372;SDS011;3219;51.362;7.074;2023-07-28T12:23:04;1.05;;;0.75;;
6372;SDS011;3219;51.362;7.074;2023-07-28T12:25:33;1.77;;;1.17;;
6372;SDS011;3219;51.362;7.074;2023-07-28T12:28:02;3.10;;;1.33;;
6372;SDS011;3219;51.362;7.074;2023-07-28T12:30:31;1.10;;;0.73;;
6372;SDS011;3219;51.362;7.074;2023-07-28T12:32:59;1.67;;;0.77;;
6372;SDS011;3219;51.362;7.074;2023-07-28T12:35:27;1.52;;;0.70;;
6372;SDS011;3219;51.362;7.074;2023-07-28T12:37:58;1.92;;;0.93;;
6372;SDS011;3219;51.362;7.074;2023-07-28T12:40:29;1.75;;;0.82;;
6372;SDS011;3219;51.362;7.074;2023-07-28T12:42:57;2.03;;;1.20;;
6372;SDS011;3219;51.362;7.074;2023-07-28T12:45:26;1.25;;;1.15;;
6372;SDS011;3219;51.362;7.074;2023-07-28T12:47:54;1.77;;;1.48;;
6372;SDS011;3219;51.362;7.074;2023-07-28T12:50:23;2.75;;;0.93;;
6372;SDS011;3219;51.362;7.074;2023-07-28T12:52:51;2.38;;;0.95;;
6372;SDS011;3219;51.362;7.074;2023-07-28T12:55:21;2.47;;;1.17;;
6372;SDS011;3219;51.362;7.074;2023-07-28T12:57:52;0.90;;;0.77;;
6372;SDS011;3219;51.362;7.074;2023-07-28T13:00:20;1.25;;;0.75;;
6372;SDS011;3219;51.362;7.074;2023-07-28T13:02:49;2.33;;;1.00;;
6372;SDS011;3219;51.362;7.074;2023-07-28T13:05:18;1.20;;;1.10;;
6372;SDS011;3219;51.362;7.074;2023-07-28T13:07:46;1.58;;;0.57;;
6372;SDS011;3219;51.362;7.074;2023-07-28T13:10:14;0.95;;;0.77;;
6372;SDS011;3219;51.362;7.074;2023-07-28T13:12:44;1.90;;;1.10;;
6372;SDS011;3219;51.362;7.074;2023-07-28T13:15:12;2.17;;;1.20;;
6372;SDS011;3219;51.362;7.074;2023-07-28T13:17:40;0.95;;;0.90;;
6372;SDS011;3219;51.362;7.074;2023-07-28T13:20:09;0.93;;;0.93;;
6372;SDS011;3219;51.362;7.074;2023-07-28T13:22:37;2.63;;;0.60;;
6372;SDS011;3219;51.362;7.074;2023-07-28T13:25:06;1.20;;;0.95;;
6372;SDS011;3219;51.362;7.074;2023-07-28T13:27:35;0.77;;;0.73;;
6372;SDS011;3219;51.362;7.074;2023-07-28T13:30:05;1.30;;;1.20;;
6372;SDS011;3219;51.362;7.074;2023-07-28T13:32:33;0.80;;;0.80;;
6372;SDS011;3219;51.362;7.074;2023-07-28T13:35:01;1.05;;;0.85;;
6372;SDS011;3219;51.362;7.074;2023-07-28T13:37:30;1.02;;;0.80;;
6372;SDS011;3219;51.362;7.074;2023-07-28T13:39:58;1.08;;;0.93;;
6372;SDS011;3219;51.362;7.074;2023-07-28T13:42:26;0.82;;;0.68;;
6372;SDS011;3219;51.362;7.074;2023-07-28T13:44:54;1.60;;;0.57;;
6372;SDS011;3219;51.362;7.074;2023-07-28T13:47:24;1.70;;;0.63;;
6372;SDS011;3219;51.362;7.074;2023-07-28T13:49:52;1.85;;;0.88;;
6372;SDS011;3219;51.362;7.074;2023-07-28T13:52:20;1.23;;;0.90;;
6372;SDS011;3219;51.362;7.074;2023-07-28T13:54:49;3.13;;;0.95;;
6372;SDS011;3219;51.362;7.074;2023-07-28T13:57:17;1.40;;;1.15;;
6372;SDS011;3219;51.362;7.074;2023-07-28T13:59:45;1.02;;;0.65;;
6372;SDS011;3219;51.362;7.074;2023-07-28T14:02:14;1.23;;;0.75;;
6372;SDS011;3219;51.362;7.074;2023-07-28T14:04:44;2.33;;;1.00;;
6372;SDS011;3219;51.362;7.074;2023-07-28T14:07:12;2.53;;;0.93;;
6372;SDS011;3219;51.362;7.074;2023-07-28T14:09:40;1.48;;;1.30;;
6372;SDS011;3219;51.362;7.074;2023-07-28T14:12:09;2.05;;;1.02;;
6372;SDS011;3219;51.362;7.074;2023-07-28T14:14:37;2.28;;;1.65;;
6372;SDS011;3219;51.362;7.074;2023-07-28T14:17:05;1.13;;;1.02;;
6372;SDS011;3219;51.362;7.074;2023-07-28T14:19:33;1.40;;;0.93;;
6372;SDS011;3219;51.362;7.074;2023-07-28T14:22:03;1.45;;;1.15;;
6372;SDS011;3219;51.362;7.074;2023-07-28T14:24:31;1.75;;;1.65;;
6372;SDS011;3219;51.362;7.074;2023-07-28T14:27:00;0.80;;;0.63;;
6372;SDS011;3219;51.362;7.074;2023-07-28T14:29:28;2.05;;;0.75;;
6372;SDS011;3219;51.362;7.074;2023-07-28T14:31:56;1.40;;;0.70;;
6372;SDS011;3219;51.362;7.074;2023-07-28T14:34:24;1.38;;;0.68;;
6372;SDS011;3219;51.362;7.074;2023-07-28T14:36:52;1.58;;;0.40;;
6372;SDS011;3219;51.362;7.074;2023-07-28T14:39:22;1.00;;;0.40;;
6372;SDS011;3219;51.362;7.074;2023-07-28T14:41:51;2.10;;;0.90;;
6372;SDS011;3219;51.362;7.074;2023-07-28T14:44:20;1.25;;;0.50;;
6372;SDS011;3219;51.362;7.074;2023-07-28T14:46:48;1.42;;;1.10;;
6372;SDS011;3219;51.362;7.074;2023-07-28T14:49:16;3.00;;;0.47;;
6372;SDS011;3219;51.362;7.074;2023-07-28T14:51:44;0.50;;;0.45;;
6372;SDS011;3219;51.362;7.074;2023-07-28T14:54:12;0.93;;;0.82;;
6372;SDS011;3219;51.362;7.074;2023-07-28T14:56:42;1.05;;;0.90;;
6372;SDS011;3219;51.362;7.074;2023-07-28T14:59:10;1.50;;;0.68;;
6372;SDS011;3219;51.362;7.074;2023-07-28T15:01:39;1.15;;;1.05;;
6372;SDS011;3219;51.362;7.074;2023-07-28T15:04:07;3.28;;;0.88;;
6372;SDS011;3219;51.362;7.074;2023-07-28T15:06:36;0.85;;;0.35;;
6372;SDS011;3219;51.362;7.074;2023-07-28T15:09:04;1.50;;;1.13;;
6372;SDS011;3219;51.362;7.074;2023-07-28T15:11:33;1.65;;;1.42;;
6372;SDS011;3219;51.362;7.074;2023-07-28T15:14:02;1.58;;;0.93;;
6372;SDS011;3219;51.362;7.074;2023-07-28T15:16:32;1.27;;;0.80;;
6372;SDS011;3219;51.362;7.074;2023-07-28T15:19:00;1.67;;;1.52;;
6372;SDS011;3219;51.362;7.074;2023-07-28T15:21:28;4.88;;;1.17;;
6372;SDS011;3219;51.362;7.074;2023-07-28T15:23:56;0.98;;;0.80;;
6372;SDS011;3219;51.362;7.074;2023-07-28T15:26:25;2.72;;;0.47;;
6372;SDS011;3219;51.362;7.074;2023-07-28T15:28:54;1.70;;;0.98;;
6372;SDS011;3219;51.362;7.074;2023-07-28T15:31:24;1.35;;;0.88;;
6372;SDS011;3219;51.362;7.074;2023-07-28T15:33:52;1.00;;;0.90;;
6372;SDS011;3219;51.362;7.074;2023-07-28T15:36:22;1.02;;;0.75;;
6372;SDS011;3219;51.362;7.074;2023-07-28T15:38:50;1.65;;;1.20;;
6372;SDS011;3219;51.362;7.074;2023-07-28T15:41:18;1.10;;;0.63;;
6372;SDS011;3219;51.362;7.074;2023-07-28T15:43:46;1.90;;;1.00;;
6372;SDS011;3219;51.362;7.074;2023-07-28T15:46:15;1.08;;;0.60;;